CYZU

Whitecourt Airport

Whitecourt, Alberta, Canada
METAR CYZU 181600Z 29010KT 15SM BKN072 M04/M11 A2966 RMK AC5 SLP084
Observed Flight Rules
Dec-18 @ 16:00 UTC (48 minutes ago) Visual Flight Rules
Wind Visibility Clouds
290° at 10 knots 15 miles
  • Broken at 7,200' AGL
Temperatures Readings
Current -4°C / 25°F
Dewpoint -11°C / 12°F
Humidity 59%
Altimeter 29.66" Hg
Pressure 1008.4 hPa
Elevation 785
METAR CYZU 181600Z 29010KT 15SM BKN072 M04/M11 A2966 RMK AC5 SLP084
Observed Flight Rules
Dec-18 @ 16:00 UTC
(48 minutes ago)
VFR
Wind Visibility
290° at 10 knots 15 miles
Clouds
  • Broken at 7,200' AGL
Temperature Dewpoint
-4°C / 25°F -11°C / 12°F
Humidity Altimeter Pressure
59% 29.66" Hg 1008.4 hPa